createdAt,value
2018-12-16T00:00:30.880Z,38.20
2018-12-16T00:02:59.324Z,30.20
2018-12-16T00:05:27.610Z,32.73
2018-12-16T00:07:55.867Z,33.47
2018-12-16T00:10:24.105Z,35.10
2018-12-16T00:12:52.510Z,36.47
2018-12-16T00:15:20.838Z,34.53
2018-12-16T00:17:49.172Z,37.93
2018-12-16T00:20:17.486Z,37.80
2018-12-16T00:22:45.756Z,35.00
2018-12-16T00:25:14.450Z,34.80
2018-12-16T00:27:42.704Z,37.80
2018-12-16T00:30:11.209Z,36.03
2018-12-16T00:32:39.468Z,34.97
2018-12-16T00:35:07.936Z,37.30
2018-12-16T00:37:36.281Z,40.57
2018-12-16T00:40:04.872Z,34.90
2018-12-16T00:42:33.113Z,33.83
2018-12-16T00:45:01.468Z,39.00
2018-12-16T00:47:29.722Z,39.87
2018-12-16T00:49:57.941Z,36.53
2018-12-16T00:52:26.192Z,34.10
2018-12-16T00:54:54.507Z,32.30
2018-12-16T00:57:22.897Z,37.57
2018-12-16T00:59:51.115Z,35.83
2018-12-16T01:02:24.886Z,36.17
2018-12-16T01:04:53.363Z,34.37
2018-12-16T01:07:21.589Z,35.03
2018-12-16T01:09:49.917Z,41.60
2018-12-16T01:12:18.244Z,37.50
2018-12-16T01:14:46.633Z,37.63
2018-12-16T01:17:14.975Z,38.53
2018-12-16T01:19:43.207Z,35.33
2018-12-16T01:22:11.538Z,38.97
2018-12-16T01:24:39.794Z,35.00
2018-12-16T01:27:08.009Z,37.33
2018-12-16T01:29:36.331Z,35.43
2018-12-16T01:32:04.644Z,38.40
2018-12-16T01:34:33.015Z,35.90
2018-12-16T01:37:01.247Z,42.33
2018-12-16T01:39:29.489Z,34.43
2018-12-16T01:41:57.721Z,39.20
2018-12-16T01:44:25.987Z,47.57
2018-12-16T01:46:54.229Z,32.80
2018-12-16T01:49:22.502Z,35.20
2018-12-16T01:51:50.758Z,35.80
2018-12-16T01:54:19.009Z,37.83
2018-12-16T01:56:47.313Z,41.40
2018-12-16T01:59:15.538Z,32.67
2018-12-16T02:01:49.146Z,41.90
2018-12-16T02:04:17.394Z,36.70
2018-12-16T02:06:45.712Z,37.87
2018-12-16T02:09:13.939Z,36.77
2018-12-16T02:11:42.197Z,37.40
2018-12-16T02:14:10.456Z,37.57
2018-12-16T02:16:38.674Z,39.37
2018-12-16T02:19:06.979Z,37.97
2018-12-16T02:21:35.374Z,35.07
2018-12-16T02:24:03.609Z,36.23
2018-12-16T02:26:31.834Z,36.20
2018-12-16T02:29:00.072Z,38.53
2018-12-16T02:31:28.322Z,38.60
2018-12-16T02:33:56.560Z,35.10
2018-12-16T02:36:24.911Z,36.97
2018-12-16T02:38:53.142Z,36.40
2018-12-16T02:41:21.391Z,38.90
2018-12-16T02:43:49.697Z,36.43
2018-12-16T02:46:17.942Z,34.77
2018-12-16T02:48:46.166Z,38.93
2018-12-16T02:51:14.395Z,36.00
2018-12-16T02:53:42.626Z,36.93
2018-12-16T02:56:11.550Z,38.43
2018-12-16T02:58:40.311Z,40.07
2018-12-16T03:01:08.535Z,34.47
2018-12-16T03:03:36.788Z,36.07
2018-12-16T03:06:05.095Z,38.37
2018-12-16T03:08:33.411Z,32.73
2018-12-16T03:11:01.731Z,35.60
2018-12-16T03:13:29.967Z,36.07
2018-12-16T03:15:58.263Z,40.53
2018-12-16T03:18:26.504Z,38.93
2018-12-16T03:20:54.722Z,36.23
2018-12-16T03:23:22.947Z,36.00
2018-12-16T03:25:51.371Z,37.03
2018-12-16T03:28:19.602Z,40.60
2018-12-16T03:30:47.839Z,38.53
2018-12-16T03:33:16.158Z,34.70
2018-12-16T03:35:44.516Z,38.13
2018-12-16T03:38:12.843Z,40.80
2018-12-16T03:40:41.079Z,39.87
2018-12-16T03:43:09.316Z,35.70
2018-12-16T03:45:37.530Z,37.50
2018-12-16T03:48:05.794Z,36.03
2018-12-16T03:50:34.127Z,37.43
2018-12-16T03:53:02.355Z,35.90
2018-12-16T03:55:30.572Z,35.60
2018-12-16T03:57:58.796Z,38.13
2018-12-16T04:00:27.060Z,34.53
2018-12-16T04:02:55.281Z,36.10
2018-12-16T04:05:23.512Z,38.27
2018-12-16T04:07:51.828Z,35.90
2018-12-16T04:10:20.198Z,39.20
2018-12-16T04:12:48.459Z,39.23
2018-12-16T04:15:16.790Z,34.50
2018-12-16T04:17:45.026Z,38.37
2018-12-16T04:20:13.358Z,41.87
2018-12-16T04:22:41.592Z,39.13
2018-12-16T04:25:09.875Z,39.83
2018-12-16T04:27:38.110Z,42.47
2018-12-16T04:30:06.514Z,36.17
2018-12-16T04:32:35.012Z,37.40
2018-12-16T04:35:03.483Z,39.87
2018-12-16T04:37:31.724Z,38.40
2018-12-16T04:40:00.070Z,36.70
2018-12-16T04:42:28.313Z,38.90
2018-12-16T04:44:56.564Z,43.93
2018-12-16T04:47:24.792Z,39.87
2018-12-16T04:49:53.086Z,39.87
2018-12-16T04:52:21.583Z,40.13
2018-12-16T04:54:49.810Z,38.10
2018-12-16T04:57:18.041Z,39.60
2018-12-16T04:59:46.262Z,39.93
2018-12-16T05:02:14.605Z,35.93
2018-12-16T05:04:42.866Z,41.10
2018-12-16T05:07:11.183Z,44.13
2018-12-16T05:09:39.613Z,39.67
2018-12-16T05:12:07.840Z,41.20
2018-12-16T05:14:36.179Z,39.30
2018-12-16T05:17:04.522Z,37.60
2018-12-16T05:19:32.765Z,37.23
2018-12-16T05:22:01.001Z,36.77
2018-12-16T05:24:29.287Z,39.27
2018-12-16T05:26:57.634Z,40.13
2018-12-16T05:29:25.863Z,37.03
2018-12-16T05:31:54.093Z,37.00
2018-12-16T05:34:22.423Z,38.37
2018-12-16T05:36:50.637Z,35.60
2018-12-16T05:39:18.872Z,43.40
2018-12-16T05:41:47.121Z,39.00
2018-12-16T05:44:15.355Z,43.67
2018-12-16T05:46:43.696Z,38.00
2018-12-16T05:49:11.994Z,41.40
2018-12-16T05:51:40.222Z,43.00
2018-12-16T05:54:08.457Z,40.63
2018-12-16T05:56:36.703Z,37.80
2018-12-16T05:59:04.925Z,44.73
2018-12-16T06:01:33.173Z,39.67
2018-12-16T06:04:01.442Z,38.10
2018-12-16T06:06:30.013Z,43.67
2018-12-16T06:08:58.233Z,38.83
2018-12-16T06:11:26.454Z,43.10
2018-12-16T06:13:54.736Z,41.77
2018-12-16T06:16:23.237Z,37.53
2018-12-16T06:18:51.550Z,40.33
2018-12-16T06:21:19.955Z,41.57
2018-12-16T06:23:48.292Z,44.50
2018-12-16T06:26:16.543Z,42.10
2018-12-16T06:28:44.771Z,35.30
2018-12-16T06:31:13.089Z,41.43
2018-12-16T06:33:41.455Z,46.80
2018-12-16T06:36:09.675Z,43.77
2018-12-16T06:38:38.158Z,44.63
2018-12-16T06:41:06.401Z,42.33
2018-12-16T06:43:34.662Z,43.93
2018-12-16T06:46:02.906Z,42.13
2018-12-16T06:48:31.146Z,52.07
2018-12-16T06:50:59.434Z,49.43
2018-12-16T06:53:27.661Z,42.33
2018-12-16T06:55:56.077Z,43.70
2018-12-16T06:58:24.446Z,44.60
2018-12-16T07:00:52.723Z,43.30
2018-12-16T07:03:21.015Z,41.07
2018-12-16T07:05:49.306Z,45.50
2018-12-16T07:08:17.639Z,44.90
2018-12-16T07:10:45.866Z,44.30
2018-12-16T07:13:14.164Z,46.27
2018-12-16T07:15:42.387Z,44.30
2018-12-16T07:18:10.670Z,40.30
2018-12-16T07:20:38.986Z,45.10
2018-12-16T07:23:07.259Z,41.70
2018-12-16T07:25:35.512Z,46.67
2018-12-16T07:28:03.767Z,44.70
2018-12-16T07:30:32.133Z,40.30
2018-12-16T07:33:00.454Z,49.53
2018-12-16T07:35:28.774Z,57.47
2018-12-16T07:37:56.992Z,47.80
2018-12-16T07:40:25.303Z,43.27
2018-12-16T07:42:53.717Z,52.27
2018-12-16T07:45:22.029Z,46.00
2018-12-16T07:47:50.283Z,53.30
2018-12-16T07:50:18.764Z,54.00
2018-12-16T07:52:47.054Z,54.47
2018-12-16T07:55:15.865Z,45.93
2018-12-16T07:57:44.206Z,56.50
2018-12-16T08:00:12.638Z,46.70
2018-12-16T08:02:41.005Z,54.63
2018-12-16T08:05:09.422Z,49.60
2018-12-16T08:07:37.712Z,49.37
2018-12-16T08:10:06.035Z,47.63
2018-12-16T08:12:34.376Z,48.70
2018-12-16T08:15:02.650Z,52.93
2018-12-16T08:17:30.972Z,48.90
2018-12-16T08:19:59.208Z,52.77
2018-12-16T08:22:27.458Z,53.03
2018-12-16T08:24:55.882Z,49.93
2018-12-16T08:27:24.203Z,58.63
2018-12-16T08:29:52.549Z,53.80
2018-12-16T08:32:20.814Z,55.17
2018-12-16T08:34:49.078Z,50.97
2018-12-16T08:37:17.329Z,46.33
2018-12-16T08:39:45.776Z,53.10
2018-12-16T08:42:14.010Z,45.60
2018-12-16T08:44:42.411Z,52.33
2018-12-16T08:47:10.750Z,54.57
2018-12-16T08:49:39.016Z,46.77
2018-12-16T08:52:07.322Z,50.10
2018-12-16T08:54:35.602Z,44.83
2018-12-16T08:57:03.944Z,54.67
2018-12-16T08:59:32.174Z,45.17
2018-12-16T09:02:00.435Z,54.17
2018-12-16T09:04:28.823Z,56.27
2018-12-16T09:06:57.144Z,58.53
2018-12-16T09:09:25.697Z,49.73
2018-12-16T09:11:54.084Z,56.40
2018-12-16T09:14:22.430Z,50.87
2018-12-16T09:16:50.813Z,53.30
2018-12-16T09:19:19.077Z,53.20
2018-12-16T09:21:47.375Z,50.90
2018-12-16T09:24:15.597Z,47.43
2018-12-16T09:26:43.888Z,45.47
2018-12-16T09:29:12.134Z,46.07
2018-12-16T09:31:40.430Z,44.80
2018-12-16T09:34:08.680Z,42.87
2018-12-16T09:36:36.953Z,48.97
2018-12-16T09:39:07.457Z,46.20
2018-12-16T09:41:35.777Z,48.10
2018-12-16T09:44:04.194Z,44.90
2018-12-16T09:46:32.490Z,52.40
2018-12-16T09:49:00.742Z,49.73
2018-12-16T09:51:29.166Z,51.10
2018-12-16T09:53:57.583Z,48.87
2018-12-16T09:56:25.988Z,48.67
2018-12-16T09:58:55.137Z,45.50
2018-12-16T10:01:23.388Z,56.20
2018-12-16T10:03:51.695Z,50.07
2018-12-16T10:06:20.006Z,51.73
2018-12-16T10:08:48.264Z,45.67
2018-12-16T10:11:16.542Z,50.60
2018-12-16T10:13:44.815Z,46.47
2018-12-16T10:16:13.075Z,53.63
2018-12-16T10:18:41.399Z,49.07
2018-12-16T10:21:09.655Z,45.17
2018-12-16T10:23:37.999Z,43.30
2018-12-16T10:26:06.267Z,45.83
2018-12-16T10:28:34.543Z,43.80
2018-12-16T10:31:02.788Z,43.27
2018-12-16T10:33:31.113Z,45.10
2018-12-16T10:35:59.392Z,43.37
2018-12-16T10:38:27.635Z,44.00
2018-12-16T10:40:56.009Z,40.07
2018-12-16T10:43:24.293Z,42.73
2018-12-16T10:45:52.583Z,40.13
2018-12-16T10:48:20.823Z,46.30
2018-12-16T10:50:49.118Z,41.30
2018-12-16T10:53:17.354Z,63.90
2018-12-16T10:55:45.685Z,51.10
2018-12-16T10:58:14.019Z,43.93
2018-12-16T11:01:46.066Z,41.87
2018-12-16T11:04:14.292Z,41.37
2018-12-16T11:06:42.534Z,41.60
2018-12-16T11:09:10.895Z,47.50
2018-12-16T11:11:39.255Z,35.80
2018-12-16T11:14:07.515Z,38.60
2018-12-16T11:16:35.743Z,41.10
2018-12-16T11:19:04.086Z,39.97
2018-12-16T11:21:32.382Z,44.73
2018-12-16T11:24:00.753Z,44.37
2018-12-16T11:26:28.982Z,45.50
2018-12-16T11:28:57.223Z,153.50
2018-12-16T11:31:25.520Z,150.77
2018-12-16T11:33:53.930Z,81.30
2018-12-16T11:36:22.209Z,86.40
2018-12-16T11:38:50.432Z,98.77
2018-12-16T11:41:19.061Z,68.63
2018-12-16T11:43:47.383Z,81.57
2018-12-16T11:46:15.662Z,60.60
2018-12-16T11:48:43.927Z,62.80
2018-12-16T11:51:12.617Z,51.40
2018-12-16T11:53:40.965Z,58.40
2018-12-16T11:56:09.269Z,58.10
2018-12-16T11:58:37.647Z,48.50
2018-12-16T12:01:06.508Z,51.33
2018-12-16T12:03:34.800Z,68.27
2018-12-16T12:06:03.137Z,49.67
2018-12-16T12:08:31.383Z,43.43
2018-12-16T12:10:59.788Z,52.57
2018-12-16T12:13:29.130Z,41.50
2018-12-16T12:15:57.423Z,47.30
2018-12-16T12:18:25.829Z,43.47
2018-12-16T12:20:54.181Z,40.43
2018-12-16T12:23:22.483Z,41.93
2018-12-16T12:25:50.854Z,42.77
2018-12-16T12:28:19.444Z,34.50
2018-12-16T12:30:47.711Z,37.07
2018-12-16T12:33:16.554Z,39.17
2018-12-16T12:35:44.889Z,46.70
2018-12-16T12:38:13.146Z,41.60
2018-12-16T12:40:42.171Z,36.47
2018-12-16T12:43:10.407Z,31.50
2018-12-16T12:45:38.759Z,40.97
2018-12-16T12:48:07.049Z,33.50
2018-12-16T12:50:35.355Z,37.60
2018-12-16T12:53:03.726Z,39.97
2018-12-16T12:55:32.113Z,38.43
2018-12-16T12:58:00.503Z,39.40
2018-12-16T13:00:28.782Z,33.40
2018-12-16T13:02:57.136Z,32.53
2018-12-16T13:05:25.407Z,33.47
2018-12-16T13:07:53.778Z,34.37
2018-12-16T13:10:22.025Z,35.27
2018-12-16T13:12:50.404Z,40.20
2018-12-16T13:15:18.622Z,34.53
2018-12-16T13:17:47.009Z,32.67
2018-12-16T13:20:15.296Z,33.13
2018-12-16T13:22:43.666Z,33.80
2018-12-16T13:25:23.348Z,34.07
2018-12-16T13:27:51.626Z,29.17
2018-12-16T13:30:19.918Z,29.80
2018-12-16T13:32:48.199Z,32.00
2018-12-16T13:35:16.751Z,28.43
2018-12-16T13:37:44.980Z,27.63
2018-12-16T13:40:13.279Z,31.23
2018-12-16T13:42:41.542Z,25.37
2018-12-16T13:45:10.496Z,31.30
2018-12-16T13:47:38.986Z,27.70
2018-12-16T13:50:08.920Z,31.30
2018-12-16T13:52:37.902Z,27.17
2018-12-16T13:55:07.106Z,31.17
2018-12-16T13:57:36.266Z,25.67
2018-12-16T14:00:05.704Z,27.97
2018-12-16T14:02:33.973Z,32.30
2018-12-16T14:05:02.218Z,30.87
2018-12-16T14:07:30.478Z,27.90
2018-12-16T14:09:59.123Z,29.97
2018-12-16T14:12:27.586Z,28.97
2018-12-16T14:14:55.925Z,34.57
2018-12-16T14:17:24.310Z,31.67
2018-12-16T14:19:52.741Z,30.97
2018-12-16T14:22:21.034Z,32.47
2018-12-16T14:24:49.349Z,26.40
2018-12-16T14:27:17.610Z,34.73
2018-12-16T14:29:46.002Z,33.37
2018-12-16T14:32:14.220Z,31.07
2018-12-16T14:34:42.500Z,34.00
2018-12-16T14:37:10.829Z,32.10
2018-12-16T14:39:39.043Z,27.23
2018-12-16T14:42:07.311Z,28.83
2018-12-16T14:44:35.586Z,36.53
2018-12-16T14:47:03.899Z,32.63
2018-12-16T14:49:32.166Z,31.70
2018-12-16T14:52:00.433Z,30.87
2018-12-16T14:54:28.667Z,30.90
2018-12-16T14:56:56.919Z,36.07
2018-12-16T14:59:25.167Z,30.00
2018-12-16T15:01:53.513Z,29.10
2018-12-16T15:04:21.790Z,32.83
2018-12-16T15:06:50.096Z,33.57
2018-12-16T15:09:18.343Z,33.17
2018-12-16T15:11:46.677Z,36.73
2018-12-16T15:14:15.025Z,32.53
2018-12-16T15:16:43.270Z,33.87
2018-12-16T15:19:11.525Z,34.77
2018-12-16T15:21:39.945Z,32.63
2018-12-16T15:24:08.261Z,33.43
2018-12-16T15:26:36.649Z,34.57
2018-12-16T15:29:05.092Z,33.57
2018-12-16T15:31:33.694Z,39.13
2018-12-16T15:34:02.040Z,34.60
2018-12-16T15:36:30.300Z,35.73
2018-12-16T15:38:58.593Z,35.27
2018-12-16T15:41:27.033Z,36.10
2018-12-16T15:43:55.339Z,32.60
2018-12-16T15:46:23.658Z,35.43
2018-12-16T15:48:52.349Z,34.67
2018-12-16T15:51:21.001Z,36.90
2018-12-16T15:53:49.345Z,36.93
2018-12-16T15:56:17.795Z,34.37
2018-12-16T15:58:46.274Z,39.17
2018-12-16T16:01:14.922Z,34.40
2018-12-16T16:03:43.474Z,35.40
2018-12-16T16:06:11.802Z,34.93
2018-12-16T16:08:40.022Z,35.80
2018-12-16T16:11:08.366Z,32.70
2018-12-16T16:13:36.666Z,38.03
2018-12-16T16:16:05.015Z,38.50
2018-12-16T16:18:33.283Z,35.50
2018-12-16T16:21:01.747Z,40.30
2018-12-16T16:23:29.990Z,38.00
2018-12-16T16:25:58.208Z,40.20
2018-12-16T16:28:27.162Z,42.30
2018-12-16T16:30:56.148Z,36.20
2018-12-16T16:33:24.424Z,41.17
2018-12-16T16:35:53.323Z,43.87
2018-12-16T16:38:21.739Z,44.70
2018-12-16T16:40:50.634Z,39.37
2018-12-16T16:43:18.862Z,42.87
2018-12-16T16:45:47.142Z,39.63
2018-12-16T16:48:15.391Z,41.83
2018-12-16T16:50:43.711Z,43.03
2018-12-16T16:53:12.056Z,45.20
2018-12-16T16:55:40.470Z,39.60
2018-12-16T16:58:08.895Z,46.90
2018-12-16T17:00:37.246Z,39.57
2018-12-16T17:03:05.494Z,43.00
2018-12-16T17:05:33.710Z,47.10
2018-12-16T17:08:02.074Z,41.53
2018-12-16T17:10:30.298Z,46.50
2018-12-16T17:12:58.592Z,45.63
2018-12-16T17:15:27.058Z,45.40
2018-12-16T17:17:56.536Z,42.60
2018-12-16T17:20:25.106Z,43.83
2018-12-16T17:22:53.415Z,46.67
2018-12-16T17:25:21.761Z,47.10
2018-12-16T17:27:50.006Z,43.93
2018-12-16T17:30:18.576Z,47.17
2018-12-16T17:32:46.831Z,45.07
2018-12-16T17:35:15.152Z,43.53
2018-12-16T17:37:43.369Z,54.63
2018-12-16T17:40:11.775Z,49.80
2018-12-16T17:42:40.097Z,45.40
2018-12-16T17:45:08.953Z,49.77
2018-12-16T17:47:37.286Z,45.93
2018-12-16T17:50:05.691Z,41.93
2018-12-16T17:52:33.976Z,39.63
2018-12-16T17:55:02.323Z,55.30
2018-12-16T17:57:30.645Z,47.37
2018-12-16T18:00:06.688Z,45.93
2018-12-16T18:02:34.944Z,52.03
2018-12-16T18:05:03.363Z,43.73
2018-12-16T18:07:31.607Z,44.83
2018-12-16T18:09:59.867Z,48.70
2018-12-16T18:12:28.139Z,38.37
2018-12-16T18:14:56.409Z,40.57
2018-12-16T18:17:24.760Z,46.20
2018-12-16T18:19:53.013Z,37.77
2018-12-16T18:22:21.241Z,35.40
2018-12-16T18:24:49.474Z,45.67
2018-12-16T18:27:17.720Z,37.03
2018-12-16T18:29:45.961Z,44.67
2018-12-16T18:32:14.358Z,42.70
2018-12-16T18:34:42.590Z,44.00
2018-12-16T18:37:11.007Z,45.77
2018-12-16T18:39:39.277Z,41.97
2018-12-16T18:42:07.926Z,48.10
2018-12-16T18:44:36.193Z,43.10
2018-12-16T18:47:04.609Z,51.13
2018-12-16T18:49:33.758Z,38.40
2018-12-16T18:52:02.052Z,44.87
2018-12-16T18:54:30.376Z,43.43
2018-12-16T18:56:58.690Z,43.03
2018-12-16T18:59:26.918Z,43.60
2018-12-16T19:01:55.327Z,42.20
2018-12-16T19:04:23.550Z,41.27
2018-12-16T19:06:51.860Z,35.90
2018-12-16T19:09:22.973Z,36.97
2018-12-16T19:11:51.239Z,41.57
2018-12-16T19:14:20.172Z,37.93
2018-12-16T19:16:48.413Z,37.27
2018-12-16T19:19:17.135Z,38.33
2018-12-16T19:21:45.398Z,38.73
2018-12-16T19:24:13.633Z,34.63
2018-12-16T19:26:41.882Z,36.90
2018-12-16T19:29:11.154Z,38.03
2018-12-16T19:31:39.415Z,37.67
2018-12-16T19:34:07.772Z,37.90
2018-12-16T19:36:36.187Z,34.30
2018-12-16T19:39:06.637Z,42.90
2018-12-16T19:41:34.946Z,37.67
2018-12-16T19:44:03.195Z,45.03
2018-12-16T19:46:31.450Z,38.13
2018-12-16T19:48:59.777Z,39.07
2018-12-16T19:51:28.025Z,45.47
2018-12-16T19:53:56.282Z,36.43
2018-12-16T19:56:24.557Z,50.17
2018-12-16T19:58:53.490Z,46.47
2018-12-16T20:01:21.722Z,43.53
2018-12-16T20:03:55.408Z,47.30
2018-12-16T20:06:29.065Z,45.90
2018-12-16T20:08:57.356Z,43.73
2018-12-16T20:11:25.622Z,48.97
2018-12-16T20:13:53.916Z,47.73
2018-12-16T20:16:22.373Z,56.47
2018-12-16T20:18:50.753Z,46.77
2018-12-16T20:21:19.015Z,56.73
2018-12-16T20:23:47.319Z,56.80
2018-12-16T20:26:15.595Z,57.60
2018-12-16T20:28:43.882Z,57.43
2018-12-16T20:31:12.152Z,58.67
2018-12-16T20:33:40.444Z,62.53
2018-12-16T20:36:08.701Z,66.00
2018-12-16T20:38:37.189Z,65.57
2018-12-16T20:41:06.096Z,70.87
2018-12-16T20:43:34.781Z,75.90
2018-12-16T20:46:03.817Z,73.40
2018-12-16T20:48:32.179Z,72.53
2018-12-16T20:51:00.493Z,75.43
2018-12-16T20:53:28.718Z,63.73
2018-12-16T20:55:57.046Z,70.77
2018-12-16T20:58:25.310Z,62.50
2018-12-16T21:00:53.619Z,60.67
2018-12-16T21:03:22.946Z,61.93
2018-12-16T21:05:51.251Z,67.80
2018-12-16T21:08:19.606Z,69.30
2018-12-16T21:10:47.878Z,64.83
2018-12-16T21:13:21.486Z,58.17
2018-12-16T21:15:55.092Z,59.37
2018-12-16T21:18:28.109Z,63.60
2018-12-16T21:20:56.331Z,55.73
2018-12-16T21:23:24.582Z,57.07
2018-12-16T21:25:52.908Z,54.20
2018-12-16T21:28:21.178Z,55.20
2018-12-16T21:30:49.594Z,48.23
2018-12-16T21:33:17.878Z,47.53
2018-12-16T21:35:46.166Z,52.47
2018-12-16T21:38:14.447Z,44.50
2018-12-16T21:40:42.679Z,45.83
2018-12-16T21:43:11.074Z,47.17
2018-12-16T21:45:39.303Z,48.30
2018-12-16T21:48:07.543Z,48.40
2018-12-16T21:50:35.809Z,48.13
2018-12-16T21:53:04.148Z,46.40
2018-12-16T21:55:32.398Z,43.80
2018-12-16T21:58:00.631Z,41.33
2018-12-16T22:00:29.088Z,45.70
2018-12-16T22:02:57.309Z,51.80
2018-12-16T22:05:30.108Z,46.80
2018-12-16T22:07:58.626Z,48.30
2018-12-16T22:10:26.840Z,49.73
2018-12-16T22:12:55.082Z,44.93
2018-12-16T22:15:23.453Z,44.67
2018-12-16T22:17:51.773Z,46.20
2018-12-16T22:20:20.022Z,44.33
2018-12-16T22:22:48.284Z,50.57
2018-12-16T22:25:16.525Z,47.73
2018-12-16T22:27:44.762Z,48.77
2018-12-16T22:30:13.019Z,46.77
2018-12-16T22:32:41.287Z,44.83
2018-12-16T22:35:10.282Z,56.83
2018-12-16T22:37:38.613Z,46.13
2018-12-16T22:40:07.662Z,49.80
2018-12-16T22:42:35.913Z,45.80
2018-12-16T22:45:05.265Z,50.00
2018-12-16T22:47:33.537Z,42.13
2018-12-16T22:50:01.895Z,41.93
2018-12-16T22:52:30.127Z,43.77
2018-12-16T22:54:58.384Z,47.60
2018-12-16T22:57:26.673Z,42.30
2018-12-16T22:59:54.893Z,44.53
2018-12-16T23:02:23.253Z,39.43
2018-12-16T23:04:51.563Z,43.13
2018-12-16T23:07:19.806Z,38.50
2018-12-16T23:09:48.055Z,35.83
2018-12-16T23:12:16.396Z,38.60
2018-12-16T23:14:44.666Z,41.50
2018-12-16T23:17:13.609Z,34.33
2018-12-16T23:19:43.829Z,35.00
2018-12-16T23:22:12.081Z,35.03
2018-12-16T23:24:40.802Z,38.53
2018-12-16T23:27:09.038Z,39.47
2018-12-16T23:29:37.266Z,31.50
2018-12-16T23:32:06.382Z,35.23
2018-12-16T23:34:34.664Z,28.10
2018-12-16T23:37:02.897Z,31.27
2018-12-16T23:39:31.134Z,39.10
2018-12-16T23:41:59.436Z,34.00
2018-12-16T23:44:27.785Z,33.53
2018-12-16T23:46:56.090Z,34.43
2018-12-16T23:49:24.364Z,35.17
2018-12-16T23:51:52.745Z,34.47
2018-12-16T23:54:20.994Z,31.90
2018-12-16T23:56:49.248Z,35.90
2018-12-16T23:59:17.466Z,31.63
